map of MAB home
Great Circle Mapper logo
MAB - Airport
Location
City:  MarabŠ, ParŠ, Brazil
Name:Jo„o Correa da Rocha Airport
ICAO / IATA:SBMA / MAB

Details
Type:Airport (Aerodrome, Airfield)
Latitude:5į22'07"S (-5.368588)
Longitude:49į08'17"W (-49.138024)
Datum:WGS 1984
Elevation:357 ft (109 m)
Runways:1
Longest:6562 × 148 ft (2000 × 45 m), paved

Time
Time Zone:UTC-3
Local Time:

Weather
METAR:SBMA 231500Z 07005KT 9999 BKN020 FEW025TCU 32/25 Q1013

Related Locations
Nearby:
Farthest:ROR: 12157 mi / 19565 km
Babelthuap Island [Babelthuap/Koror Airport], PW

Find:

   beyond  
but within

Other Information
Maps:
NOTAMs:
Links:
Sources:

  
flag of Brazil
flag of ParŠ
  

Sectional Chart

Flight Planning
at skyvector.com

Satellite Image

Google Maps Satellite View

 

Copyright © 2004-2014 Karl L. Swartz. All rights reserved.
The Great Circle Mapper name and logo are trademarks of the Great Circle Mapper.
All other trademarks mentioned herein belong to their respective owners.
Please see credits for attibutions and further copyright information.

  Follow gcmap on Facebook Follow gcmap on Twitter

hCard Microformat

Geo Microformat